createdAt,value
2023-03-10T00:00:39.732Z,10.84
2023-03-10T00:03:07.451Z,11.18
2023-03-10T00:05:35.308Z,11.34
2023-03-10T00:08:03.053Z,10.73
2023-03-10T00:10:30.803Z,10.24
2023-03-10T00:12:58.525Z,10.15
2023-03-10T00:15:26.296Z,10.52
2023-03-10T00:17:55.740Z,10.49
2023-03-10T00:20:23.589Z,10.68
2023-03-10T00:22:51.306Z,10.79
2023-03-10T00:25:19.492Z,9.57
2023-03-10T00:27:47.186Z,9.93
2023-03-10T00:30:15.131Z,9.84
2023-03-10T00:32:42.888Z,10.12
2023-03-10T00:35:10.633Z,10.25
2023-03-10T00:37:38.599Z,10.20
2023-03-10T00:40:10.345Z,10.39
2023-03-10T00:42:38.064Z,9.99
2023-03-10T00:45:06.123Z,9.98
2023-03-10T00:47:33.863Z,9.79
2023-03-10T00:50:01.587Z,9.30
2023-03-10T00:52:32.808Z,8.98
2023-03-10T00:55:00.610Z,9.01
2023-03-10T00:57:28.497Z,9.04
2023-03-10T00:59:56.582Z,9.09
2023-03-10T01:02:24.262Z,8.77
2023-03-10T01:04:52.069Z,9.15
2023-03-10T01:07:19.754Z,9.04
2023-03-10T01:09:47.499Z,9.09
2023-03-10T01:12:15.213Z,9.25
2023-03-10T01:14:42.899Z,9.24
2023-03-10T01:17:10.641Z,9.24
2023-03-10T01:19:38.414Z,8.94
2023-03-10T01:22:06.186Z,8.78
2023-03-10T01:24:33.923Z,8.30
2023-03-10T01:27:01.668Z,8.55
2023-03-10T01:29:29.423Z,8.93
2023-03-10T01:31:57.166Z,8.46
2023-03-10T01:34:24.858Z,8.82
2023-03-10T01:36:52.873Z,8.91
2023-03-10T01:39:20.558Z,8.95
2023-03-10T01:41:48.311Z,9.11
2023-03-10T01:44:20.576Z,9.11
2023-03-10T01:46:52.699Z,9.36
2023-03-10T01:49:43.824Z,9.37
2023-03-10T01:52:18.213Z,8.67
2023-03-10T01:54:53.206Z,9.14
2023-03-10T01:57:23.867Z,9.27
2023-03-10T01:59:52.669Z,9.25
2023-03-10T02:02:20.933Z,8.45
2023-03-10T02:04:49.640Z,8.99
2023-03-10T02:07:24.134Z,8.82
2023-03-10T02:09:52.194Z,7.85
2023-03-10T02:12:20.846Z,8.03
2023-03-10T02:14:48.627Z,7.56
2023-03-10T02:17:17.802Z,7.85
2023-03-10T02:20:16.487Z,8.22
2023-03-10T02:22:44.237Z,7.51
2023-03-10T02:25:22.628Z,7.40
2023-03-10T02:27:50.427Z,8.04
2023-03-10T02:30:34.864Z,7.30
2023-03-10T02:33:05.569Z,7.02
2023-03-10T02:35:33.427Z,7.24
2023-03-10T02:38:05.824Z,6.91
2023-03-10T02:40:40.432Z,6.95
2023-03-10T02:43:18.811Z,6.98
2023-03-10T02:45:48.766Z,6.56
2023-03-10T02:48:36.290Z,6.68
2023-03-10T02:51:11.356Z,6.97
2023-03-10T02:53:40.535Z,6.66
2023-03-10T02:56:08.304Z,6.75
2023-03-10T02:58:38.332Z,7.08
2023-03-10T03:01:08.824Z,7.55
2023-03-10T03:03:40.539Z,7.41
2023-03-10T03:06:09.707Z,7.61
2023-03-10T03:08:37.421Z,7.64
2023-03-10T03:11:07.827Z,7.81
2023-03-10T03:13:35.773Z,7.94
2023-03-10T03:16:05.976Z,7.97
2023-03-10T03:18:33.836Z,7.70
2023-03-10T03:21:06.617Z,7.82
2023-03-10T03:23:34.830Z,7.98
2023-03-10T03:26:02.966Z,8.25
2023-03-10T03:28:30.936Z,8.66
2023-03-10T03:30:59.186Z,8.12
2023-03-10T03:33:27.074Z,7.81
2023-03-10T03:35:55.007Z,6.90
2023-03-10T03:38:22.806Z,6.92
2023-03-10T03:40:51.105Z,6.62
2023-03-10T03:43:21.700Z,6.65
2023-03-10T03:45:49.805Z,6.82
2023-03-10T03:48:17.615Z,7.48
2023-03-10T03:50:45.537Z,6.87
2023-03-10T03:53:25.742Z,7.30
2023-03-10T03:55:53.646Z,6.99
2023-03-10T03:58:24.196Z,7.31
2023-03-10T04:00:52.392Z,6.55
2023-03-10T04:03:20.686Z,6.34
2023-03-10T04:05:49.742Z,6.99
2023-03-10T04:08:18.158Z,7.35
2023-03-10T04:10:52.865Z,8.12
2023-03-10T04:13:22.556Z,8.16
2023-03-10T04:15:58.317Z,8.10
2023-03-10T04:18:30.448Z,8.06
2023-03-10T04:20:58.234Z,8.37
2023-03-10T04:23:26.877Z,8.25
2023-03-10T04:25:55.162Z,8.46
2023-03-10T04:28:23.135Z,8.37
2023-03-10T04:30:51.753Z,8.67
2023-03-10T04:33:23.040Z,8.64
2023-03-10T04:35:52.741Z,8.76
2023-03-10T04:38:23.745Z,8.14
2023-03-10T04:40:56.401Z,8.32
2023-03-10T04:43:28.044Z,8.62
2023-03-10T04:45:57.631Z,8.77
2023-03-10T04:48:25.530Z,8.90
2023-03-10T04:50:59.730Z,8.24
2023-03-10T04:53:30.139Z,8.31
2023-03-10T04:55:59.093Z,8.51
2023-03-10T04:58:27.231Z,8.41
2023-03-10T05:01:03.320Z,8.27
2023-03-10T05:03:36.689Z,7.82
2023-03-10T05:06:11.983Z,8.04
2023-03-10T05:08:39.772Z,8.11
2023-03-10T05:11:08.130Z,8.35
2023-03-10T05:13:36.095Z,8.22
2023-03-10T05:16:04.994Z,7.64
2023-03-10T05:18:32.798Z,7.99
2023-03-10T05:21:00.542Z,8.24
2023-03-10T05:23:29.527Z,8.12
2023-03-10T05:25:57.293Z,8.45
2023-03-10T05:28:26.104Z,8.50
2023-03-10T05:30:54.465Z,8.72
2023-03-10T05:33:22.376Z,8.72
2023-03-10T05:35:51.656Z,8.92
2023-03-10T05:38:19.485Z,8.22
2023-03-10T05:40:47.264Z,8.12
2023-03-10T05:43:17.607Z,8.29
2023-03-10T05:45:45.883Z,8.37
2023-03-10T05:48:13.987Z,8.71
2023-03-10T05:50:41.967Z,8.26
2023-03-10T05:53:09.741Z,8.69
2023-03-10T05:55:37.600Z,9.15
2023-03-10T05:58:05.414Z,9.26
2023-03-10T06:00:33.145Z,8.94
2023-03-10T06:03:04.490Z,8.63
2023-03-10T06:05:32.317Z,8.24
2023-03-10T06:08:00.409Z,8.96
2023-03-10T06:10:28.117Z,8.12
2023-03-10T06:12:56.071Z,8.84
2023-03-10T06:15:23.784Z,8.49
2023-03-10T06:17:51.534Z,9.20
2023-03-10T06:20:19.297Z,9.43
2023-03-10T06:22:47.020Z,9.58
2023-03-10T06:25:14.775Z,9.76
2023-03-10T06:27:42.517Z,9.85
2023-03-10T06:30:10.897Z,9.80
2023-03-10T06:32:38.771Z,9.20
2023-03-10T06:35:06.725Z,9.77
2023-03-10T06:37:34.428Z,9.93
2023-03-10T06:40:02.162Z,9.87
2023-03-10T06:42:32.217Z,10.10
2023-03-10T06:44:59.993Z,10.12
2023-03-10T06:47:27.712Z,9.99
2023-03-10T06:49:55.456Z,10.28
2023-03-10T06:52:23.201Z,10.24
2023-03-10T06:54:51.001Z,10.11
2023-03-10T06:57:20.975Z,10.32
2023-03-10T06:59:48.800Z,10.56
2023-03-10T07:02:16.568Z,10.41
2023-03-10T07:04:44.600Z,10.46
2023-03-10T07:07:13.346Z,10.42
2023-03-10T07:09:41.188Z,10.65
2023-03-10T07:12:09.015Z,10.73
2023-03-10T07:14:36.733Z,10.91
2023-03-10T07:17:04.621Z,11.04
2023-03-10T07:19:32.731Z,11.14
2023-03-10T07:22:00.416Z,11.21
2023-03-10T07:24:28.148Z,11.16
2023-03-10T07:26:56.052Z,11.28
2023-03-10T07:29:23.846Z,11.45
2023-03-10T07:31:51.550Z,11.46
2023-03-10T07:34:19.309Z,11.46
2023-03-10T07:36:46.999Z,11.61
2023-03-10T07:39:14.729Z,11.57
2023-03-10T07:41:42.475Z,11.28
2023-03-10T07:44:10.301Z,11.57
2023-03-10T07:46:38.023Z,11.85
2023-03-10T07:49:05.978Z,11.62
2023-03-10T07:51:34.131Z,11.84
2023-03-10T07:54:01.922Z,12.36
2023-03-10T07:56:29.584Z,12.30
2023-03-10T07:58:58.969Z,12.62
2023-03-10T08:01:26.717Z,12.84
2023-03-10T08:03:57.542Z,12.83
2023-03-10T08:06:26.945Z,13.27
2023-03-10T08:08:55.197Z,13.43
2023-03-10T08:11:23.206Z,13.50
2023-03-10T08:13:51.190Z,13.73
2023-03-10T08:16:19.921Z,13.93
2023-03-10T08:18:50.368Z,14.06
2023-03-10T08:21:18.058Z,14.19
2023-03-10T08:23:45.780Z,14.54
2023-03-10T08:26:14.781Z,14.78
2023-03-10T08:28:42.595Z,14.94
2023-03-10T08:31:15.350Z,14.96
2023-03-10T08:33:43.725Z,14.76
2023-03-10T08:36:22.089Z,14.96
2023-03-10T08:38:51.036Z,15.32
2023-03-10T08:41:19.691Z,15.60
2023-03-10T08:43:49.313Z,15.74
2023-03-10T08:46:18.276Z,15.74
2023-03-10T08:48:46.196Z,15.79
2023-03-10T08:51:15.993Z,15.58
2023-03-10T08:53:44.700Z,15.86
2023-03-10T08:56:12.467Z,15.88
2023-03-10T08:58:40.363Z,16.10
2023-03-10T09:01:08.073Z,15.72
2023-03-10T09:03:37.516Z,16.08
2023-03-10T09:06:05.875Z,16.60
2023-03-10T09:08:33.699Z,16.56
2023-03-10T09:11:01.669Z,16.44
2023-03-10T09:13:29.430Z,16.49
2023-03-10T09:15:57.236Z,16.85
2023-03-10T09:18:25.019Z,16.22
2023-03-10T09:20:52.774Z,16.28
2023-03-10T09:23:20.502Z,16.93
2023-03-10T09:25:48.314Z,17.10
2023-03-10T09:28:18.545Z,15.88
2023-03-10T09:30:48.182Z,16.24
2023-03-10T09:33:17.863Z,16.66
2023-03-10T09:35:52.781Z,17.24
2023-03-10T09:38:25.722Z,17.25
2023-03-10T09:41:20.140Z,17.26
2023-03-10T09:43:50.914Z,16.83
2023-03-10T09:46:23.021Z,15.40
2023-03-10T09:49:03.525Z,15.36
2023-03-10T09:51:31.706Z,16.17
2023-03-10T09:54:12.174Z,16.71
2023-03-10T09:56:40.011Z,16.71
2023-03-10T09:59:09.783Z,16.97
2023-03-10T10:01:37.576Z,16.56
2023-03-10T10:04:09.935Z,15.69
2023-03-10T10:06:39.094Z,15.80
2023-03-10T10:09:13.859Z,15.88
2023-03-10T10:11:41.629Z,16.08
2023-03-10T10:14:31.415Z,16.44
2023-03-10T10:17:08.521Z,16.86
2023-03-10T10:19:37.326Z,16.86
2023-03-10T10:22:29.115Z,17.06
2023-03-10T10:25:08.788Z,17.11
2023-03-10T10:27:37.081Z,17.12
2023-03-10T10:30:32.886Z,16.78
2023-03-10T10:33:10.866Z,16.77
2023-03-10T10:35:40.376Z,16.79
2023-03-10T10:38:11.170Z,16.83
2023-03-10T10:40:56.893Z,16.52
2023-03-10T10:43:24.631Z,17.02
2023-03-10T10:45:57.357Z,16.23
2023-03-10T10:48:37.664Z,16.76
2023-03-10T10:51:06.346Z,16.12
2023-03-10T10:53:34.450Z,16.43
2023-03-10T10:56:06.981Z,16.54
2023-03-10T10:58:38.906Z,16.94
2023-03-10T11:01:14.350Z,16.50
2023-03-10T11:03:46.286Z,16.91
2023-03-10T11:06:17.034Z,16.95
2023-03-10T11:08:50.929Z,17.00
2023-03-10T11:11:44.571Z,17.14
2023-03-10T11:14:43.957Z,16.57
2023-03-10T11:17:14.649Z,16.21
2023-03-10T11:19:51.537Z,16.53
2023-03-10T11:22:24.914Z,17.05
2023-03-10T11:25:12.895Z,17.25
2023-03-10T11:27:46.215Z,17.20
2023-03-10T11:30:17.294Z,17.11
2023-03-10T11:32:57.018Z,17.10
2023-03-10T11:35:28.132Z,17.21
2023-03-10T11:38:22.242Z,15.80
2023-03-10T11:40:52.995Z,15.08
2023-03-10T11:43:42.720Z,15.21
2023-03-10T11:46:24.232Z,14.94
2023-03-10T11:49:11.135Z,14.01
2023-03-10T11:51:43.027Z,13.87
2023-03-10T11:54:12.575Z,13.58
2023-03-10T11:56:40.291Z,13.81
2023-03-10T11:59:24.780Z,14.04
2023-03-10T12:02:00.977Z,14.02
2023-03-10T12:04:44.309Z,13.63
2023-03-10T12:07:30.663Z,13.48
2023-03-10T12:09:59.503Z,13.92
2023-03-10T12:12:32.059Z,14.55
2023-03-10T12:15:00.826Z,15.00
2023-03-10T12:17:28.697Z,14.55
2023-03-10T12:20:14.693Z,15.16
2023-03-10T12:23:10.039Z,15.08
2023-03-10T12:25:38.454Z,14.75
2023-03-10T12:28:28.360Z,14.94
2023-03-10T12:30:59.132Z,15.45
2023-03-10T12:33:39.725Z,15.61
2023-03-10T12:36:26.032Z,15.72
2023-03-10T12:39:13.401Z,14.86
2023-03-10T12:41:51.107Z,15.06
2023-03-10T12:44:29.960Z,14.02
2023-03-10T12:47:09.932Z,13.74
2023-03-10T12:49:49.009Z,13.83
2023-03-10T12:52:24.728Z,14.35
2023-03-10T12:54:52.370Z,14.33
2023-03-10T12:57:37.226Z,14.70
2023-03-10T13:00:12.480Z,14.57
2023-03-10T13:03:08.041Z,15.19
2023-03-10T13:05:38.772Z,14.80
2023-03-10T13:08:16.698Z,14.87
2023-03-10T13:10:44.414Z,14.93
2023-03-10T13:13:16.036Z,14.55
2023-03-10T13:15:43.825Z,14.85
2023-03-10T13:18:19.802Z,14.69
2023-03-10T13:20:47.772Z,15.17
2023-03-10T13:23:35.527Z,15.38
2023-03-10T13:26:05.093Z,14.64
2023-03-10T13:28:34.676Z,15.07
2023-03-10T13:31:18.337Z,15.02
2023-03-10T13:33:53.270Z,15.43
2023-03-10T13:36:35.575Z,15.34
2023-03-10T13:39:10.512Z,15.15
2023-03-10T13:41:40.182Z,14.87
2023-03-10T13:44:24.492Z,14.65
2023-03-10T13:46:57.047Z,15.02
2023-03-10T13:49:32.302Z,15.10
2023-03-10T13:52:01.580Z,14.64
2023-03-10T13:54:31.124Z,15.04
2023-03-10T13:57:12.303Z,15.32
2023-03-10T13:59:40.114Z,15.30
2023-03-10T14:02:33.208Z,15.40
2023-03-10T14:05:01.037Z,15.64
2023-03-10T14:07:35.629Z,15.28
2023-03-10T14:10:07.812Z,15.53
2023-03-10T14:12:48.041Z,15.34
2023-03-10T14:15:38.231Z,14.86
2023-03-10T14:18:08.666Z,14.93
2023-03-10T14:20:43.334Z,14.44
2023-03-10T14:23:19.836Z,14.93
2023-03-10T14:25:51.824Z,13.97
2023-03-10T14:28:30.781Z,14.93
2023-03-10T14:30:59.313Z,14.32
2023-03-10T14:33:27.083Z,14.15
2023-03-10T14:35:54.903Z,14.42
2023-03-10T14:38:22.580Z,14.30
2023-03-10T14:40:54.260Z,14.30
2023-03-10T14:43:26.378Z,14.62
2023-03-10T14:45:55.520Z,14.84
2023-03-10T14:48:24.947Z,14.23
2023-03-10T14:50:54.683Z,14.37
2023-03-10T14:53:25.042Z,13.72
2023-03-10T14:55:56.430Z,13.01
2023-03-10T14:59:02.484Z,13.24
2023-03-10T15:01:30.525Z,13.26
2023-03-10T15:03:58.260Z,13.17
2023-03-10T15:06:26.001Z,13.46
2023-03-10T15:08:53.744Z,13.69
2023-03-10T15:11:35.725Z,13.65
2023-03-10T15:14:11.081Z,14.27
2023-03-10T15:16:39.091Z,13.34
2023-03-10T15:19:06.790Z,12.48
2023-03-10T15:21:34.529Z,12.37
2023-03-10T15:24:07.490Z,12.06
2023-03-10T15:26:35.324Z,12.17
2023-03-10T15:29:02.997Z,12.19
2023-03-10T15:31:30.941Z,12.31
2023-03-10T15:33:58.703Z,11.21
2023-03-10T15:36:26.602Z,11.95
2023-03-10T15:38:54.572Z,11.85
2023-03-10T15:41:23.716Z,12.33
2023-03-10T15:43:51.419Z,12.40
2023-03-10T15:46:19.329Z,12.05
2023-03-10T15:48:47.025Z,12.26
2023-03-10T15:51:17.595Z,12.45
2023-03-10T15:53:45.401Z,12.66
2023-03-10T15:56:13.666Z,12.86
2023-03-10T15:58:41.594Z,12.48
2023-03-10T16:01:20.836Z,12.44
2023-03-10T16:03:51.418Z,12.44
2023-03-10T16:06:19.227Z,12.53
2023-03-10T16:08:46.992Z,12.08
2023-03-10T16:11:19.329Z,11.65
2023-03-10T16:13:49.424Z,10.83
2023-03-10T16:16:18.549Z,10.96
2023-03-10T16:18:46.832Z,11.46
2023-03-10T16:21:17.736Z,11.43
2023-03-10T16:23:45.870Z,11.18
2023-03-10T16:26:16.097Z,11.32
2023-03-10T16:28:45.509Z,11.43
2023-03-10T16:31:14.310Z,11.10
2023-03-10T16:33:42.118Z,10.59
2023-03-10T16:36:13.208Z,10.40
2023-03-10T16:38:40.995Z,10.59
2023-03-10T16:41:09.796Z,10.23
2023-03-10T16:43:37.585Z,10.68
2023-03-10T16:46:10.828Z,10.92
2023-03-10T16:48:43.248Z,10.89
2023-03-10T16:51:38.942Z,11.00
2023-03-10T16:54:15.346Z,11.23
2023-03-10T16:56:44.680Z,11.28
2023-03-10T16:59:18.475Z,11.36
2023-03-10T17:01:46.994Z,10.16
2023-03-10T17:04:14.768Z,10.41
2023-03-10T17:06:42.483Z,10.25
2023-03-10T17:09:10.900Z,9.96
2023-03-10T17:11:40.115Z,10.98
2023-03-10T17:14:10.020Z,10.80
2023-03-10T17:16:37.883Z,11.10
2023-03-10T17:19:07.840Z,11.09
2023-03-10T17:21:38.324Z,9.66
2023-03-10T17:24:09.061Z,9.01
2023-03-10T17:26:36.911Z,9.43
2023-03-10T17:29:04.671Z,9.77
2023-03-10T17:31:32.580Z,10.69
2023-03-10T17:34:01.894Z,10.28
2023-03-10T17:36:29.786Z,10.60
2023-03-10T17:38:58.940Z,10.57
2023-03-10T17:41:27.023Z,10.92
2023-03-10T17:43:55.000Z,11.06
2023-03-10T17:46:25.126Z,10.34
2023-03-10T17:48:53.166Z,11.13
2023-03-10T17:51:23.298Z,11.33
2023-03-10T17:53:52.480Z,11.36
2023-03-10T17:56:21.931Z,10.73
2023-03-10T17:58:50.064Z,11.28
2023-03-10T18:01:19.733Z,10.64
2023-03-10T18:03:48.566Z,11.33
2023-03-10T18:06:17.840Z,10.15
2023-03-10T18:08:45.836Z,10.12
2023-03-10T18:11:13.627Z,10.58
2023-03-10T18:13:41.478Z,10.75
2023-03-10T18:16:18.104Z,10.29
2023-03-10T18:18:46.103Z,10.60
2023-03-10T18:21:14.337Z,10.64
2023-03-10T18:23:42.074Z,10.21
2023-03-10T18:26:10.827Z,9.67
2023-03-10T18:28:38.707Z,10.32
2023-03-10T18:31:08.082Z,9.74
2023-03-10T18:33:36.513Z,9.36
2023-03-10T18:36:06.315Z,9.83
2023-03-10T18:38:34.082Z,9.76
2023-03-10T18:41:02.494Z,9.20
2023-03-10T18:43:32.136Z,9.46
2023-03-10T18:46:00.444Z,9.84
2023-03-10T18:48:28.672Z,10.08
2023-03-10T18:50:57.149Z,10.59
2023-03-10T18:53:25.530Z,10.92
2023-03-10T18:55:53.765Z,11.31
2023-03-10T18:58:21.742Z,11.08
2023-03-10T19:00:49.937Z,10.65
2023-03-10T19:03:18.439Z,10.65
2023-03-10T19:05:46.322Z,11.22
2023-03-10T19:08:14.126Z,10.96
2023-03-10T19:10:41.872Z,10.95
2023-03-10T19:13:09.642Z,10.02
2023-03-10T19:15:37.519Z,11.03
2023-03-10T19:18:05.373Z,11.28
2023-03-10T19:20:33.029Z,11.27
2023-03-10T19:23:00.857Z,11.13
2023-03-10T19:25:28.534Z,10.67
2023-03-10T19:27:56.372Z,11.13
2023-03-10T19:30:24.172Z,10.86
2023-03-10T19:32:52.153Z,10.55
2023-03-10T19:35:20.127Z,10.75
2023-03-10T19:37:47.889Z,10.44
2023-03-10T19:40:17.557Z,10.40
2023-03-10T19:42:45.439Z,10.42
2023-03-10T19:45:15.295Z,10.61
2023-03-10T19:47:43.316Z,10.12
2023-03-10T19:50:12.586Z,9.24
2023-03-10T19:52:47.219Z,9.95
2023-03-10T19:55:19.987Z,10.06
2023-03-10T19:57:48.651Z,10.34
2023-03-10T20:00:18.893Z,9.54
2023-03-10T20:02:46.765Z,9.49
2023-03-10T20:05:14.830Z,9.10
2023-03-10T20:07:44.568Z,8.80
2023-03-10T20:10:13.133Z,9.28
2023-03-10T20:12:40.859Z,9.31
2023-03-10T20:15:09.121Z,9.38
2023-03-10T20:17:36.848Z,9.61
2023-03-10T20:20:10.310Z,9.99
2023-03-10T20:22:39.497Z,9.81
2023-03-10T20:25:07.980Z,10.11
2023-03-10T20:27:35.889Z,9.70
2023-03-10T20:30:14.009Z,10.03
2023-03-10T20:32:41.909Z,9.39
2023-03-10T20:35:09.708Z,8.88
2023-03-10T20:37:38.705Z,9.29
2023-03-10T20:40:07.075Z,9.04
2023-03-10T20:42:34.766Z,9.60
2023-03-10T20:45:03.894Z,9.67
2023-03-10T20:47:31.617Z,9.10
2023-03-10T20:49:59.638Z,9.16
2023-03-10T20:52:27.379Z,8.78
2023-03-10T20:54:55.121Z,9.58
2023-03-10T20:57:22.907Z,9.62
2023-03-10T20:59:50.705Z,9.65
2023-03-10T21:02:18.521Z,9.43
2023-03-10T21:04:47.158Z,9.16
2023-03-10T21:07:15.028Z,8.69
2023-03-10T21:09:42.774Z,8.69
2023-03-10T21:12:11.379Z,8.79
2023-03-10T21:14:39.048Z,7.97
2023-03-10T21:17:06.966Z,8.11
2023-03-10T21:19:34.643Z,8.24
2023-03-10T21:22:03.506Z,8.33
2023-03-10T21:24:31.240Z,8.60
2023-03-10T21:26:59.090Z,8.93
2023-03-10T21:29:27.047Z,8.61
2023-03-10T21:31:54.817Z,8.71
2023-03-10T21:34:22.514Z,9.12
2023-03-10T21:36:50.241Z,8.76
2023-03-10T21:39:18.082Z,8.75
2023-03-10T21:41:45.783Z,9.14
2023-03-10T21:44:13.521Z,9.09
2023-03-10T21:46:41.283Z,9.52
2023-03-10T21:49:09.079Z,9.21
2023-03-10T21:51:36.773Z,9.58
2023-03-10T21:54:05.061Z,9.69
2023-03-10T21:56:32.774Z,9.71
2023-03-10T21:59:00.545Z,9.90
2023-03-10T22:01:28.678Z,10.18
2023-03-10T22:03:56.648Z,9.90
2023-03-10T22:06:24.537Z,9.69
2023-03-10T22:08:52.244Z,10.34
2023-03-10T22:11:19.945Z,10.47
2023-03-10T22:13:47.734Z,10.56
2023-03-10T22:16:16.214Z,10.20
2023-03-10T22:18:44.473Z,10.06
2023-03-10T22:21:12.157Z,10.41
2023-03-10T22:23:40.008Z,10.21
2023-03-10T22:26:07.801Z,10.60
2023-03-10T22:28:35.506Z,10.39
2023-03-10T22:31:09.378Z,10.99
2023-03-10T22:33:37.233Z,10.80
2023-03-10T22:36:06.451Z,10.79
2023-03-10T22:38:34.323Z,11.03
2023-03-10T22:41:02.009Z,10.88
2023-03-10T22:43:29.940Z,10.50
2023-03-10T22:45:59.851Z,10.63
2023-03-10T22:48:27.545Z,10.18
2023-03-10T22:50:55.224Z,10.19
2023-03-10T22:53:23.001Z,10.55
2023-03-10T22:55:50.727Z,10.07
2023-03-10T22:58:18.451Z,10.41
2023-03-10T23:00:46.467Z,10.92
2023-03-10T23:03:15.400Z,10.95
2023-03-10T23:05:45.169Z,10.29
2023-03-10T23:08:13.052Z,10.28
2023-03-10T23:10:41.228Z,10.20
2023-03-10T23:13:12.899Z,9.57
2023-03-10T23:15:40.647Z,9.95
2023-03-10T23:18:08.445Z,10.15
2023-03-10T23:20:41.840Z,9.95
2023-03-10T23:23:09.955Z,10.53
2023-03-10T23:25:39.502Z,10.53
2023-03-10T23:28:08.307Z,10.23
2023-03-10T23:30:37.329Z,10.06
2023-03-10T23:33:05.129Z,10.69
2023-03-10T23:35:33.346Z,10.71
2023-03-10T23:38:01.741Z,10.16
2023-03-10T23:40:30.256Z,10.48
2023-03-10T23:42:59.409Z,10.31
2023-03-10T23:45:28.050Z,10.56
2023-03-10T23:47:56.115Z,10.77
2023-03-10T23:50:32.616Z,10.87
2023-03-10T23:53:00.673Z,10.87
2023-03-10T23:55:30.273Z,10.69
2023-03-10T23:57:58.003Z,10.96
